sensor_id;sensor_type;location;lat;lon;timestamp;P1;durP1;ratioP1;P2;durP2;ratioP2
84021;SDS011;74108;48.636;9.492;2024-03-23T00:54:00;7.30;;;4.07;;
84021;SDS011;74108;48.636;9.492;2024-03-23T00:56:26;7.20;;;4.47;;
84021;SDS011;74108;48.636;9.492;2024-03-23T00:58:51;8.68;;;4.63;;
84021;SDS011;74108;48.636;9.492;2024-03-23T01:01:16;8.10;;;4.50;;
84021;SDS011;74108;48.636;9.492;2024-03-23T01:03:42;8.88;;;5.22;;
84021;SDS011;74108;48.636;9.492;2024-03-23T01:06:07;7.47;;;4.95;;
84021;SDS011;74108;48.636;9.492;2024-03-23T01:08:32;8.30;;;4.80;;
84021;SDS011;74108;48.636;9.492;2024-03-23T01:10:58;8.70;;;5.50;;
84021;SDS011;74108;48.636;9.492;2024-03-23T01:13:25;7.57;;;4.80;;
84021;SDS011;74108;48.636;9.492;2024-03-23T01:15:51;9.98;;;5.10;;
84021;SDS011;74108;48.636;9.492;2024-03-23T01:18:17;8.68;;;5.30;;
84021;SDS011;74108;48.636;9.492;2024-03-23T01:20:44;7.65;;;5.13;;
84021;SDS011;74108;48.636;9.492;2024-03-23T01:23:09;7.63;;;4.40;;
84021;SDS011;74108;48.636;9.492;2024-03-23T01:25:35;9.13;;;5.10;;
84021;SDS011;74108;48.636;9.492;2024-03-23T01:28:00;6.82;;;4.55;;
84021;SDS011;74108;48.636;9.492;2024-03-23T01:30:25;7.53;;;4.55;;
84021;SDS011;74108;48.636;9.492;2024-03-23T01:32:51;8.45;;;4.60;;
84021;SDS011;74108;48.636;9.492;2024-03-23T01:35:16;7.82;;;4.78;;
84021;SDS011;74108;48.636;9.492;2024-03-23T01:37:41;10.73;;;5.53;;
84021;SDS011;74108;48.636;9.492;2024-03-23T01:40:07;10.32;;;5.32;;
84021;SDS011;74108;48.636;9.492;2024-03-23T01:42:34;9.55;;;6.25;;
84021;SDS011;74108;48.636;9.492;2024-03-23T01:44:59;7.97;;;5.10;;
84021;SDS011;74108;48.636;9.492;2024-03-23T01:47:24;15.98;;;5.32;;
84021;SDS011;74108;48.636;9.492;2024-03-23T01:49:50;10.30;;;5.57;;
84021;SDS011;74108;48.636;9.492;2024-03-23T01:52:16;9.98;;;5.75;;
84021;SDS011;74108;48.636;9.492;2024-03-23T01:54:42;16.02;;;8.82;;
84021;SDS011;74108;48.636;9.492;2024-03-23T01:57:08;13.38;;;8.40;;
84021;SDS011;74108;48.636;9.492;2024-03-23T01:59:34;10.05;;;5.65;;
84021;SDS011;74108;48.636;9.492;2024-03-23T02:01:59;10.10;;;6.00;;
84021;SDS011;74108;48.636;9.492;2024-03-23T02:04:24;8.75;;;5.30;;
84021;SDS011;74108;48.636;9.492;2024-03-23T02:06:50;10.18;;;5.63;;
84021;SDS011;74108;48.636;9.492;2024-03-23T02:09:15;10.40;;;5.70;;
84021;SDS011;74108;48.636;9.492;2024-03-23T02:11:41;9.18;;;5.53;;
84021;SDS011;74108;48.636;9.492;2024-03-23T02:14:06;12.43;;;5.72;;
84021;SDS011;74108;48.636;9.492;2024-03-23T02:16:32;9.63;;;5.57;;
84021;SDS011;74108;48.636;9.492;2024-03-23T02:18:58;10.05;;;5.90;;
84021;SDS011;74108;48.636;9.492;2024-03-23T02:21:23;8.95;;;5.50;;
84021;SDS011;74108;48.636;9.492;2024-03-23T02:23:49;6.93;;;4.72;;
84021;SDS011;74108;48.636;9.492;2024-03-23T02:26:14;7.15;;;4.75;;
84021;SDS011;74108;48.636;9.492;2024-03-23T02:28:40;8.30;;;5.20;;
84021;SDS011;74108;48.636;9.492;2024-03-23T02:31:05;8.43;;;5.80;;
84021;SDS011;74108;48.636;9.492;2024-03-23T02:33:31;8.52;;;5.38;;
84021;SDS011;74108;48.636;9.492;2024-03-23T02:35:57;10.57;;;5.50;;
84021;SDS011;74108;48.636;9.492;2024-03-23T02:38:22;9.23;;;5.72;;
84021;SDS011;74108;48.636;9.492;2024-03-23T02:40:48;7.90;;;5.10;;
84021;SDS011;74108;48.636;9.492;2024-03-23T02:43:13;7.90;;;5.03;;
84021;SDS011;74108;48.636;9.492;2024-03-23T02:45:38;14.23;;;5.80;;
84021;SDS011;74108;48.636;9.492;2024-03-23T02:48:04;11.10;;;5.47;;
84021;SDS011;74108;48.636;9.492;2024-03-23T02:50:30;9.02;;;5.72;;
84021;SDS011;74108;48.636;9.492;2024-03-23T02:52:55;10.20;;;5.57;;
84021;SDS011;74108;48.636;9.492;2024-03-23T02:55:21;9.77;;;5.65;;
84021;SDS011;74108;48.636;9.492;2024-03-23T02:57:47;8.23;;;5.20;;
84021;SDS011;74108;48.636;9.492;2024-03-23T03:00:12;10.60;;;5.40;;
84021;SDS011;74108;48.636;9.492;2024-03-23T03:02:38;9.07;;;5.25;;
84021;SDS011;74108;48.636;9.492;2024-03-23T03:05:04;11.23;;;5.80;;
84021;SDS011;74108;48.636;9.492;2024-03-23T03:07:31;8.75;;;5.07;;
84021;SDS011;74108;48.636;9.492;2024-03-23T03:09:56;8.07;;;5.35;;
84021;SDS011;74108;48.636;9.492;2024-03-23T03:12:22;9.35;;;5.40;;
84021;SDS011;74108;48.636;9.492;2024-03-23T03:14:48;12.02;;;5.20;;
84021;SDS011;74108;48.636;9.492;2024-03-23T03:17:13;8.25;;;5.15;;
84021;SDS011;74108;48.636;9.492;2024-03-23T03:19:39;8.95;;;5.57;;
84021;SDS011;74108;48.636;9.492;2024-03-23T03:22:05;8.18;;;5.40;;
84021;SDS011;74108;48.636;9.492;2024-03-23T03:24:30;10.13;;;5.50;;
84021;SDS011;74108;48.636;9.492;2024-03-23T03:26:56;11.40;;;5.35;;
84021;SDS011;74108;48.636;9.492;2024-03-23T03:29:22;9.38;;;5.85;;
84021;SDS011;74108;48.636;9.492;2024-03-23T03:31:47;10.70;;;5.68;;
84021;SDS011;74108;48.636;9.492;2024-03-23T03:34:15;10.80;;;5.65;;
84021;SDS011;74108;48.636;9.492;2024-03-23T03:36:41;7.32;;;5.10;;
84021;SDS011;74108;48.636;9.492;2024-03-23T03:39:06;8.93;;;5.60;;
84021;SDS011;74108;48.636;9.492;2024-03-23T03:41:32;9.60;;;5.30;;
84021;SDS011;74108;48.636;9.492;2024-03-23T03:43:57;8.02;;;5.03;;
84021;SDS011;74108;48.636;9.492;2024-03-23T03:46:27;9.48;;;5.55;;
84021;SDS011;74108;48.636;9.492;2024-03-23T03:48:53;11.00;;;5.78;;
84021;SDS011;74108;48.636;9.492;2024-03-23T03:51:19;8.75;;;5.55;;
84021;SDS011;74108;48.636;9.492;2024-03-23T03:53:45;10.95;;;5.13;;
84021;SDS011;74108;48.636;9.492;2024-03-23T03:56:10;8.48;;;5.22;;
84021;SDS011;74108;48.636;9.492;2024-03-23T03:58:35;7.78;;;5.25;;
84021;SDS011;74108;48.636;9.492;2024-03-23T04:01:01;8.07;;;5.10;;
84021;SDS011;74108;48.636;9.492;2024-03-23T04:03:26;8.13;;;5.05;;
84021;SDS011;74108;48.636;9.492;2024-03-23T04:05:52;7.68;;;4.90;;
84021;SDS011;74108;48.636;9.492;2024-03-23T04:08:18;7.80;;;4.57;;
84021;SDS011;74108;48.636;9.492;2024-03-23T04:10:44;7.00;;;4.60;;
84021;SDS011;74108;48.636;9.492;2024-03-23T04:13:10;8.90;;;4.75;;
84021;SDS011;74108;48.636;9.492;2024-03-23T04:15:36;10.55;;;5.45;;
84021;SDS011;74108;48.636;9.492;2024-03-23T04:18:02;8.45;;;5.47;;
84021;SDS011;74108;48.636;9.492;2024-03-23T04:20:27;8.73;;;4.93;;
84021;SDS011;74108;48.636;9.492;2024-03-23T04:22:52;8.48;;;5.25;;
84021;SDS011;74108;48.636;9.492;2024-03-23T04:25:18;9.55;;;5.60;;
84021;SDS011;74108;48.636;9.492;2024-03-23T04:27:44;9.52;;;4.70;;
84021;SDS011;74108;48.636;9.492;2024-03-23T04:30:10;7.03;;;4.03;;
84021;SDS011;74108;48.636;9.492;2024-03-23T04:32:37;6.85;;;4.45;;
84021;SDS011;74108;48.636;9.492;2024-03-23T04:35:02;7.03;;;4.68;;
84021;SDS011;74108;48.636;9.492;2024-03-23T04:37:34;8.23;;;4.93;;
84021;SDS011;74108;48.636;9.492;2024-03-23T04:40:00;7.22;;;4.18;;
84021;SDS011;74108;48.636;9.492;2024-03-23T04:42:26;5.97;;;3.38;;
84021;SDS011;74108;48.636;9.492;2024-03-23T04:44:52;6.25;;;3.30;;
84021;SDS011;74108;48.636;9.492;2024-03-23T04:47:18;5.75;;;3.20;;
84021;SDS011;74108;48.636;9.492;2024-03-23T04:49:43;4.85;;;2.80;;
84021;SDS011;74108;48.636;9.492;2024-03-23T04:52:09;4.32;;;2.60;;
84021;SDS011;74108;48.636;9.492;2024-03-23T04:54:34;4.07;;;2.55;;
84021;SDS011;74108;48.636;9.492;2024-03-23T04:57:00;3.78;;;2.50;;
84021;SDS011;74108;48.636;9.492;2024-03-23T04:59:25;4.78;;;2.70;;
84021;SDS011;74108;48.636;9.492;2024-03-23T05:01:50;5.35;;;2.90;;
84021;SDS011;74108;48.636;9.492;2024-03-23T05:04:16;6.45;;;2.67;;
84021;SDS011;74108;48.636;9.492;2024-03-23T05:06:41;5.00;;;2.67;;
84021;SDS011;74108;48.636;9.492;2024-03-23T05:09:07;3.78;;;2.58;;
84021;SDS011;74108;48.636;9.492;2024-03-23T05:11:35;4.65;;;2.60;;
84021;SDS011;74108;48.636;9.492;2024-03-23T05:14:01;3.50;;;2.00;;
84021;SDS011;74108;48.636;9.492;2024-03-23T05:16:28;4.25;;;2.50;;
84021;SDS011;74108;48.636;9.492;2024-03-23T05:18:53;5.45;;;2.30;;
84021;SDS011;74108;48.636;9.492;2024-03-23T05:21:18;4.75;;;2.42;;
84021;SDS011;74108;48.636;9.492;2024-03-23T05:23:44;6.93;;;2.80;;
84021;SDS011;74108;48.636;9.492;2024-03-23T05:26:09;6.03;;;3.10;;
84021;SDS011;74108;48.636;9.492;2024-03-23T05:28:35;6.20;;;3.50;;
84021;SDS011;74108;48.636;9.492;2024-03-23T05:31:00;5.63;;;3.35;;
84021;SDS011;74108;48.636;9.492;2024-03-23T05:33:26;5.47;;;3.95;;
84021;SDS011;74108;48.636;9.492;2024-03-23T05:35:58;7.45;;;4.43;;
84021;SDS011;74108;48.636;9.492;2024-03-23T05:40:58;7.47;;;4.28;;
84021;SDS011;74108;48.636;9.492;2024-03-23T05:43:26;6.88;;;4.43;;
84021;SDS011;74108;48.636;9.492;2024-03-23T05:45:55;7.65;;;4.88;;
84021;SDS011;74108;48.636;9.492;2024-03-23T05:48:21;8.60;;;5.28;;
84021;SDS011;74108;48.636;9.492;2024-03-23T05:50:47;8.18;;;5.03;;
84021;SDS011;74108;48.636;9.492;2024-03-23T05:53:12;9.60;;;5.70;;
84021;SDS011;74108;48.636;9.492;2024-03-23T05:55:38;8.77;;;5.35;;
84021;SDS011;74108;48.636;9.492;2024-03-23T05:58:03;9.80;;;5.38;;
84021;SDS011;74108;48.636;9.492;2024-03-23T06:00:29;10.48;;;5.97;;
84021;SDS011;74108;48.636;9.492;2024-03-23T06:02:54;9.75;;;6.13;;
84021;SDS011;74108;48.636;9.492;2024-03-23T06:05:19;10.55;;;6.18;;
84021;SDS011;74108;48.636;9.492;2024-03-23T06:07:45;10.65;;;7.13;;
84021;SDS011;74108;48.636;9.492;2024-03-23T06:10:11;12.95;;;7.03;;
84021;SDS011;74108;48.636;9.492;2024-03-23T06:12:36;16.27;;;7.80;;
84021;SDS011;74108;48.636;9.492;2024-03-23T06:15:02;14.30;;;8.32;;
84021;SDS011;74108;48.636;9.492;2024-03-23T06:17:27;15.50;;;8.30;;
84021;SDS011;74108;48.636;9.492;2024-03-23T06:19:52;16.25;;;7.90;;
84021;SDS011;74108;48.636;9.492;2024-03-23T06:22:18;14.80;;;8.38;;
84021;SDS011;74108;48.636;9.492;2024-03-23T06:24:44;18.02;;;8.80;;
84021;SDS011;74108;48.636;9.492;2024-03-23T06:27:09;18.55;;;9.00;;
84021;SDS011;74108;48.636;9.492;2024-03-23T06:29:34;16.33;;;8.52;;
84021;SDS011;74108;48.636;9.492;2024-03-23T06:32:01;13.32;;;7.13;;
84021;SDS011;74108;48.636;9.492;2024-03-23T06:34:27;12.32;;;5.88;;
84021;SDS011;74108;48.636;9.492;2024-03-23T06:36:52;9.68;;;4.53;;
84021;SDS011;74108;48.636;9.492;2024-03-23T06:39:17;7.10;;;4.30;;
84021;SDS011;74108;48.636;9.492;2024-03-23T06:41:51;9.20;;;3.88;;
84021;SDS011;74108;48.636;9.492;2024-03-23T06:44:17;7.28;;;3.30;;
84021;SDS011;74108;48.636;9.492;2024-03-23T06:46:43;4.25;;;2.65;;
84021;SDS011;74108;48.636;9.492;2024-03-23T06:49:09;7.50;;;2.72;;
84021;SDS011;74108;48.636;9.492;2024-03-23T06:51:35;4.60;;;2.67;;
84021;SDS011;74108;48.636;9.492;2024-03-23T06:54:00;4.25;;;2.40;;
84021;SDS011;74108;48.636;9.492;2024-03-23T06:56:27;4.13;;;2.50;;
84021;SDS011;74108;48.636;9.492;2024-03-23T06:58:52;4.57;;;2.50;;
84021;SDS011;74108;48.636;9.492;2024-03-23T07:01:18;5.55;;;2.58;;
84021;SDS011;74108;48.636;9.492;2024-03-23T07:03:44;4.13;;;2.60;;
84021;SDS011;74108;48.636;9.492;2024-03-23T07:06:09;5.10;;;2.53;;
84021;SDS011;74108;48.636;9.492;2024-03-23T07:08:36;5.53;;;2.33;;
84021;SDS011;74108;48.636;9.492;2024-03-23T07:11:01;5.68;;;2.80;;
84021;SDS011;74108;48.636;9.492;2024-03-23T07:13:27;5.10;;;2.88;;
84021;SDS011;74108;48.636;9.492;2024-03-23T07:15:53;4.00;;;2.65;;
84021;SDS011;74108;48.636;9.492;2024-03-23T07:18:20;4.35;;;2.80;;
84021;SDS011;74108;48.636;9.492;2024-03-23T07:20:53;4.53;;;2.72;;
84021;SDS011;74108;48.636;9.492;2024-03-23T07:23:19;4.25;;;2.20;;
84021;SDS011;74108;48.636;9.492;2024-03-23T07:25:45;3.15;;;1.85;;
84021;SDS011;74108;48.636;9.492;2024-03-23T07:28:10;1.80;;;1.30;;
84021;SDS011;74108;48.636;9.492;2024-03-23T07:30:36;2.13;;;1.40;;
84021;SDS011;74108;48.636;9.492;2024-03-23T07:33:01;2.28;;;1.20;;
84021;SDS011;74108;48.636;9.492;2024-03-23T07:35:26;1.55;;;1.08;;
84021;SDS011;74108;48.636;9.492;2024-03-23T07:37:52;1.60;;;1.10;;
84021;SDS011;74108;48.636;9.492;2024-03-23T07:40:17;2.90;;;1.25;;
84021;SDS011;74108;48.636;9.492;2024-03-23T07:42:42;2.88;;;1.30;;
84021;SDS011;74108;48.636;9.492;2024-03-23T07:45:08;2.22;;;1.10;;
84021;SDS011;74108;48.636;9.492;2024-03-23T07:47:34;1.38;;;1.08;;
84021;SDS011;74108;48.636;9.492;2024-03-23T07:50:00;1.73;;;1.00;;
84021;SDS011;74108;48.636;9.492;2024-03-23T07:52:28;2.00;;;1.00;;
84021;SDS011;74108;48.636;9.492;2024-03-23T07:54:54;1.02;;;0.80;;
84021;SDS011;74108;48.636;9.492;2024-03-23T07:57:19;0.82;;;0.60;;
84021;SDS011;74108;48.636;9.492;2024-03-23T07:59:44;0.77;;;0.60;;
84021;SDS011;74108;48.636;9.492;2024-03-23T08:02:10;0.60;;;0.50;;
84021;SDS011;74108;48.636;9.492;2024-03-23T08:04:36;0.73;;;0.55;;
84021;SDS011;74108;48.636;9.492;2024-03-23T08:07:01;1.13;;;0.90;;
84021;SDS011;74108;48.636;9.492;2024-03-23T08:09:27;0.93;;;0.68;;
84021;SDS011;74108;48.636;9.492;2024-03-23T08:11:52;0.90;;;0.43;;
84021;SDS011;74108;48.636;9.492;2024-03-23T08:14:18;0.50;;;0.50;;
84021;SDS011;74108;48.636;9.492;2024-03-23T08:16:43;0.90;;;0.70;;
84021;SDS011;74108;48.636;9.492;2024-03-23T08:19:13;1.55;;;0.45;;
84021;SDS011;74108;48.636;9.492;2024-03-23T08:21:39;0.63;;;0.60;;
84021;SDS011;74108;48.636;9.492;2024-03-23T08:24:05;0.80;;;0.70;;
84021;SDS011;74108;48.636;9.492;2024-03-23T08:26:31;0.80;;;0.70;;
84021;SDS011;74108;48.636;9.492;2024-03-23T08:28:56;0.50;;;0.50;;
84021;SDS011;74108;48.636;9.492;2024-03-23T08:31:22;1.00;;;0.35;;
84021;SDS011;74108;48.636;9.492;2024-03-23T08:33:47;1.90;;;0.47;;
84021;SDS011;74108;48.636;9.492;2024-03-23T08:36:13;0.50;;;0.45;;
84021;SDS011;74108;48.636;9.492;2024-03-23T08:38:42;1.20;;;0.40;;
84021;SDS011;74108;48.636;9.492;2024-03-23T08:41:08;0.43;;;0.30;;
84021;SDS011;74108;48.636;9.492;2024-03-23T08:43:36;0.63;;;0.45;;
84021;SDS011;74108;48.636;9.492;2024-03-23T08:48:35;0.88;;;0.68;;
84021;SDS011;74108;48.636;9.492;2024-03-23T08:51:02;0.55;;;0.50;;
84021;SDS011;74108;48.636;9.492;2024-03-23T08:53:28;0.80;;;0.60;;
84021;SDS011;74108;48.636;9.492;2024-03-23T08:55:55;1.30;;;1.08;;
84021;SDS011;74108;48.636;9.492;2024-03-23T08:58:22;1.38;;;1.10;;
84021;SDS011;74108;48.636;9.492;2024-03-23T09:00:51;1.92;;;0.88;;
84021;SDS011;74108;48.636;9.492;2024-03-23T09:03:17;1.25;;;0.90;;
84021;SDS011;74108;48.636;9.492;2024-03-23T09:05:43;2.20;;;1.20;;
84021;SDS011;74108;48.636;9.492;2024-03-23T09:08:09;2.45;;;1.50;;
84021;SDS011;74108;48.636;9.492;2024-03-23T09:10:39;2.83;;;1.30;;
84021;SDS011;74108;48.636;9.492;2024-03-23T09:13:05;2.67;;;1.70;;
84021;SDS011;74108;48.636;9.492;2024-03-23T09:15:44;3.92;;;1.90;;
84021;SDS011;74108;48.636;9.492;2024-03-23T09:18:15;2.08;;;1.30;;
84021;SDS011;74108;48.636;9.492;2024-03-23T09:20:41;2.90;;;1.42;;
84021;SDS011;74108;48.636;9.492;2024-03-23T09:23:06;2.28;;;1.30;;
84021;SDS011;74108;48.636;9.492;2024-03-23T09:25:36;5.85;;;1.70;;
84021;SDS011;74108;48.636;9.492;2024-03-23T09:28:03;2.83;;;1.40;;
84021;SDS011;74108;48.636;9.492;2024-03-23T09:30:30;3.20;;;1.60;;
84021;SDS011;74108;48.636;9.492;2024-03-23T09:32:59;3.20;;;1.50;;
84021;SDS011;74108;48.636;9.492;2024-03-23T09:35:25;2.40;;;1.60;;
84021;SDS011;74108;48.636;9.492;2024-03-23T09:37:50;3.25;;;1.55;;
84021;SDS011;74108;48.636;9.492;2024-03-23T09:40:15;5.30;;;1.52;;
84021;SDS011;74108;48.636;9.492;2024-03-23T09:42:41;3.95;;;1.58;;
84021;SDS011;74108;48.636;9.492;2024-03-23T09:45:14;2.88;;;1.58;;
84021;SDS011;74108;48.636;9.492;2024-03-23T09:47:42;5.47;;;1.65;;
84021;SDS011;74108;48.636;9.492;2024-03-23T09:50:08;3.92;;;1.73;;
84021;SDS011;74108;48.636;9.492;2024-03-23T09:52:34;5.22;;;1.95;;
84021;SDS011;74108;48.636;9.492;2024-03-23T09:55:00;3.95;;;1.98;;
84021;SDS011;74108;48.636;9.492;2024-03-23T09:57:25;5.13;;;1.80;;
84021;SDS011;74108;48.636;9.492;2024-03-23T09:59:51;3.90;;;1.77;;
84021;SDS011;74108;48.636;9.492;2024-03-23T10:02:16;4.00;;;1.98;;
84021;SDS011;74108;48.636;9.492;2024-03-23T10:04:45;4.80;;;2.05;;
84021;SDS011;74108;48.636;9.492;2024-03-23T10:07:20;4.68;;;2.10;;
84021;SDS011;74108;48.636;9.492;2024-03-23T10:09:47;4.32;;;1.88;;
84021;SDS011;74108;48.636;9.492;2024-03-23T10:12:13;4.43;;;2.30;;
84021;SDS011;74108;48.636;9.492;2024-03-23T10:14:40;9.68;;;3.13;;
84021;SDS011;74108;48.636;9.492;2024-03-23T10:19:47;5.68;;;2.30;;
84021;SDS011;74108;48.636;9.492;2024-03-23T10:22:24;5.65;;;2.70;;
84021;SDS011;74108;48.636;9.492;2024-03-23T10:24:50;6.60;;;2.35;;
84021;SDS011;74108;48.636;9.492;2024-03-23T10:27:17;5.10;;;2.33;;
84021;SDS011;74108;48.636;9.492;2024-03-23T10:29:43;6.32;;;2.50;;
84021;SDS011;74108;48.636;9.492;2024-03-23T10:32:10;3.92;;;2.45;;
84021;SDS011;74108;48.636;9.492;2024-03-23T10:34:36;6.10;;;2.20;;
84021;SDS011;74108;48.636;9.492;2024-03-23T10:37:03;5.68;;;2.33;;
84021;SDS011;74108;48.636;9.492;2024-03-23T10:39:32;3.70;;;2.20;;
84021;SDS011;74108;48.636;9.492;2024-03-23T10:42:00;4.88;;;2.40;;
84021;SDS011;74108;48.636;9.492;2024-03-23T10:46:54;4.25;;;2.20;;
84021;SDS011;74108;48.636;9.492;2024-03-23T10:49:24;4.50;;;2.03;;
84021;SDS011;74108;48.636;9.492;2024-03-23T10:51:51;5.28;;;2.15;;
84021;SDS011;74108;48.636;9.492;2024-03-23T10:54:18;4.50;;;2.30;;
84021;SDS011;74108;48.636;9.492;2024-03-23T10:56:45;5.38;;;2.45;;
84021;SDS011;74108;48.636;9.492;2024-03-23T10:59:11;6.07;;;2.20;;
84021;SDS011;74108;48.636;9.492;2024-03-23T11:01:54;6.55;;;1.95;;
84021;SDS011;74108;48.636;9.492;2024-03-23T11:04:34;5.63;;;2.42;;
84021;SDS011;74108;48.636;9.492;2024-03-23T11:07:03;6.43;;;2.75;;
84021;SDS011;74108;48.636;9.492;2024-03-23T11:09:54;5.47;;;2.20;;
84021;SDS011;74108;48.636;9.492;2024-03-23T11:14:51;5.13;;;2.13;;
84021;SDS011;74108;48.636;9.492;2024-03-23T11:17:22;6.03;;;2.47;;
84021;SDS011;74108;48.636;9.492;2024-03-23T11:19:55;5.15;;;2.42;;
84021;SDS011;74108;48.636;9.492;2024-03-23T11:22:40;5.70;;;2.05;;
84021;SDS011;74108;48.636;9.492;2024-03-23T11:25:14;3.25;;;1.85;;
84021;SDS011;74108;48.636;9.492;2024-03-23T11:27:45;4.80;;;1.73;;
84021;SDS011;74108;48.636;9.492;2024-03-23T11:30:13;3.40;;;1.70;;
84021;SDS011;74108;48.636;9.492;2024-03-23T11:32:40;3.15;;;1.20;;
84021;SDS011;74108;48.636;9.492;2024-03-23T11:35:06;2.70;;;1.67;;
84021;SDS011;74108;48.636;9.492;2024-03-23T11:37:31;6.65;;;2.53;;
84021;SDS011;74108;48.636;9.492;2024-03-23T11:39:57;4.93;;;2.63;;
84021;SDS011;74108;48.636;9.492;2024-03-23T11:42:22;6.88;;;3.47;;
84021;SDS011;74108;48.636;9.492;2024-03-23T11:44:47;12.30;;;6.43;;
84021;SDS011;74108;48.636;9.492;2024-03-23T11:47:13;4.35;;;2.40;;
84021;SDS011;74108;48.636;9.492;2024-03-23T11:49:38;3.55;;;1.70;;
84021;SDS011;74108;48.636;9.492;2024-03-23T11:52:06;3.60;;;1.60;;
84021;SDS011;74108;48.636;9.492;2024-03-23T11:54:32;5.60;;;2.63;;
84021;SDS011;74108;48.636;9.492;2024-03-23T11:57:01;8.02;;;3.58;;
84021;SDS011;74108;48.636;9.492;2024-03-23T11:59:36;2.75;;;1.70;;
84021;SDS011;74108;48.636;9.492;2024-03-23T12:02:07;5.15;;;2.13;;
84021;SDS011;74108;48.636;9.492;2024-03-23T12:04:32;4.32;;;1.70;;
84021;SDS011;74108;48.636;9.492;2024-03-23T12:07:15;2.83;;;1.50;;
84021;SDS011;74108;48.636;9.492;2024-03-23T12:10:04;2.72;;;1.73;;
84021;SDS011;74108;48.636;9.492;2024-03-23T12:12:31;6.00;;;1.60;;
84021;SDS011;74108;48.636;9.492;2024-03-23T12:17:30;4.22;;;1.60;;
84021;SDS011;74108;48.636;9.492;2024-03-23T12:19:55;4.72;;;1.60;;
84021;SDS011;74108;48.636;9.492;2024-03-23T12:22:21;4.13;;;1.60;;
84021;SDS011;74108;48.636;9.492;2024-03-23T12:24:47;5.55;;;1.70;;
84021;SDS011;74108;48.636;9.492;2024-03-23T12:27:13;2.80;;;1.50;;
84021;SDS011;74108;48.636;9.492;2024-03-23T12:29:38;2.97;;;1.50;;
84021;SDS011;74108;48.636;9.492;2024-03-23T12:32:04;2.70;;;1.15;;
84021;SDS011;74108;48.636;9.492;2024-03-23T12:34:30;2.90;;;1.23;;
84021;SDS011;74108;48.636;9.492;2024-03-23T12:36:56;5.10;;;1.65;;
84021;SDS011;74108;48.636;9.492;2024-03-23T12:39:21;4.13;;;1.40;;
84021;SDS011;74108;48.636;9.492;2024-03-23T12:41:47;3.58;;;1.73;;
84021;SDS011;74108;48.636;9.492;2024-03-23T12:44:13;3.15;;;1.20;;
84021;SDS011;74108;48.636;9.492;2024-03-23T12:46:40;4.20;;;1.38;;
84021;SDS011;74108;48.636;9.492;2024-03-23T12:49:06;3.72;;;1.70;;
84021;SDS011;74108;48.636;9.492;2024-03-23T12:51:32;4.45;;;1.48;;
84021;SDS011;74108;48.636;9.492;2024-03-23T12:53:58;3.28;;;1.40;;
84021;SDS011;74108;48.636;9.492;2024-03-23T12:56:23;4.20;;;1.77;;
84021;SDS011;74108;48.636;9.492;2024-03-23T12:58:49;5.63;;;1.90;;
84021;SDS011;74108;48.636;9.492;2024-03-23T13:01:16;5.28;;;1.60;;
84021;SDS011;74108;48.636;9.492;2024-03-23T13:03:42;3.65;;;1.70;;
84021;SDS011;74108;48.636;9.492;2024-03-23T13:06:09;4.55;;;1.70;;
84021;SDS011;74108;48.636;9.492;2024-03-23T13:08:35;6.05;;;2.10;;
84021;SDS011;74108;48.636;9.492;2024-03-23T13:11:00;7.97;;;1.70;;
84021;SDS011;74108;48.636;9.492;2024-03-23T13:13:26;5.50;;;1.75;;
84021;SDS011;74108;48.636;9.492;2024-03-23T13:15:51;6.22;;;2.00;;
84021;SDS011;74108;48.636;9.492;2024-03-23T13:18:25;6.50;;;1.98;;
84021;SDS011;74108;48.636;9.492;2024-03-23T13:20:54;4.10;;;1.90;;
84021;SDS011;74108;48.636;9.492;2024-03-23T13:23:19;5.65;;;2.15;;
84021;SDS011;74108;48.636;9.492;2024-03-23T13:25:55;4.82;;;1.83;;
84021;SDS011;74108;48.636;9.492;2024-03-23T13:28:21;3.78;;;1.60;;
84021;SDS011;74108;48.636;9.492;2024-03-23T13:30:54;4.05;;;1.92;;
84021;SDS011;74108;48.636;9.492;2024-03-23T13:33:20;5.05;;;1.98;;
84021;SDS011;74108;48.636;9.492;2024-03-23T13:35:50;4.72;;;1.40;;
84021;SDS011;74108;48.636;9.492;2024-03-23T13:38:15;5.40;;;1.90;;
84021;SDS011;74108;48.636;9.492;2024-03-23T13:40:48;6.07;;;2.05;;
84021;SDS011;74108;48.636;9.492;2024-03-23T13:43:15;6.35;;;1.80;;
84021;SDS011;74108;48.636;9.492;2024-03-23T13:45:40;4.45;;;2.08;;
84021;SDS011;74108;48.636;9.492;2024-03-23T13:48:06;5.43;;;2.10;;
84021;SDS011;74108;48.636;9.492;2024-03-23T13:50:31;4.15;;;1.73;;
84021;SDS011;74108;48.636;9.492;2024-03-23T13:52:56;3.67;;;1.60;;
84021;SDS011;74108;48.636;9.492;2024-03-23T13:55:22;4.43;;;1.83;;
84021;SDS011;74108;48.636;9.492;2024-03-23T13:57:48;5.15;;;1.63;;
84021;SDS011;74108;48.636;9.492;2024-03-23T14:00:13;5.53;;;1.70;;
84021;SDS011;74108;48.636;9.492;2024-03-23T14:02:39;2.65;;;1.40;;
84021;SDS011;74108;48.636;9.492;2024-03-23T14:05:05;3.53;;;1.52;;
84021;SDS011;74108;48.636;9.492;2024-03-23T14:07:30;2.70;;;1.30;;
84021;SDS011;74108;48.636;9.492;2024-03-23T14:09:56;4.70;;;1.20;;
84021;SDS011;74108;48.636;9.492;2024-03-23T14:12:21;1.77;;;1.08;;
84021;SDS011;74108;48.636;9.492;2024-03-23T14:14:46;3.55;;;1.38;;
84021;SDS011;74108;48.636;9.492;2024-03-23T14:17:12;2.55;;;1.20;;
84021;SDS011;74108;48.636;9.492;2024-03-23T14:19:39;1.75;;;1.05;;
84021;SDS011;74108;48.636;9.492;2024-03-23T14:22:04;2.15;;;1.13;;
84021;SDS011;74108;48.636;9.492;2024-03-23T14:24:32;2.35;;;1.25;;
84021;SDS011;74108;48.636;9.492;2024-03-23T14:26:58;2.10;;;1.08;;
84021;SDS011;74108;48.636;9.492;2024-03-23T14:29:23;3.08;;;1.35;;
84021;SDS011;74108;48.636;9.492;2024-03-23T14:31:49;2.97;;;1.20;;
84021;SDS011;74108;48.636;9.492;2024-03-23T14:34:14;2.25;;;1.42;;
84021;SDS011;74108;48.636;9.492;2024-03-23T14:36:40;3.60;;;1.20;;
84021;SDS011;74108;48.636;9.492;2024-03-23T14:39:05;3.05;;;1.50;;
84021;SDS011;74108;48.636;9.492;2024-03-23T14:41:31;2.08;;;1.23;;
84021;SDS011;74108;48.636;9.492;2024-03-23T14:43:56;12.80;;;2.72;;
84021;SDS011;74108;48.636;9.492;2024-03-23T14:46:22;3.42;;;1.40;;
84021;SDS011;74108;48.636;9.492;2024-03-23T14:48:48;2.33;;;1.23;;
84021;SDS011;74108;48.636;9.492;2024-03-23T14:51:14;3.67;;;1.40;;
84021;SDS011;74108;48.636;9.492;2024-03-23T14:53:40;2.42;;;1.30;;
84021;SDS011;74108;48.636;9.492;2024-03-23T14:56:09;4.18;;;1.40;;
84021;SDS011;74108;48.636;9.492;2024-03-23T14:58:40;5.18;;;1.45;;
84021;SDS011;74108;48.636;9.492;2024-03-23T15:01:06;3.10;;;1.15;;
84021;SDS011;74108;48.636;9.492;2024-03-23T15:03:38;2.58;;;1.15;;
84021;SDS011;74108;48.636;9.492;2024-03-23T15:06:04;3.53;;;1.20;;
84021;SDS011;74108;48.636;9.492;2024-03-23T15:08:30;2.22;;;1.20;;
84021;SDS011;74108;48.636;9.492;2024-03-23T15:10:59;4.35;;;1.33;;
84021;SDS011;74108;48.636;9.492;2024-03-23T15:13:25;4.68;;;1.30;;
84021;SDS011;74108;48.636;9.492;2024-03-23T15:15:50;1.92;;;1.35;;
84021;SDS011;74108;48.636;9.492;2024-03-23T15:18:17;2.15;;;1.20;;
84021;SDS011;74108;48.636;9.492;2024-03-23T15:21:01;2.28;;;1.15;;
84021;SDS011;74108;48.636;9.492;2024-03-23T15:23:28;8.55;;;2.10;;
84021;SDS011;74108;48.636;9.492;2024-03-23T15:25:55;3.88;;;1.38;;
84021;SDS011;74108;48.636;9.492;2024-03-23T15:28:21;4.03;;;1.70;;
84021;SDS011;74108;48.636;9.492;2024-03-23T15:30:47;3.42;;;1.30;;
84021;SDS011;74108;48.636;9.492;2024-03-23T15:33:13;3.67;;;1.48;;
84021;SDS011;74108;48.636;9.492;2024-03-23T15:35:38;5.43;;;1.27;;
84021;SDS011;74108;48.636;9.492;2024-03-23T15:38:04;3.40;;;1.40;;
84021;SDS011;74108;48.636;9.492;2024-03-23T15:40:29;4.28;;;1.50;;
84021;SDS011;74108;48.636;9.492;2024-03-23T15:42:54;4.82;;;1.45;;
84021;SDS011;74108;48.636;9.492;2024-03-23T15:45:20;3.85;;;1.20;;
84021;SDS011;74108;48.636;9.492;2024-03-23T15:47:45;2.60;;;1.17;;
84021;SDS011;74108;48.636;9.492;2024-03-23T15:50:10;3.00;;;1.30;;